createdAt,value
2017-07-10T13:29:24.000Z,2.03
2017-07-10T13:32:04.638Z,2.40
2017-07-10T13:34:47.958Z,2.53
2017-07-10T13:37:32.206Z,2.30
2017-07-10T13:40:20.166Z,2.20
2017-07-10T13:43:02.658Z,1.80
2017-07-10T13:45:49.640Z,2.17
2017-07-10T13:48:36.604Z,1.57
2017-07-10T13:51:23.550Z,1.97
2017-07-10T13:54:09.904Z,1.80
2017-07-10T13:56:52.637Z,2.10
2017-07-10T13:59:37.676Z,1.90
2017-07-10T14:02:22.453Z,1.87
2017-07-10T14:05:06.162Z,1.90
2017-07-10T14:07:46.547Z,1.80
2017-07-10T14:10:32.591Z,1.73
2017-07-10T14:13:17.550Z,2.00
2017-07-10T14:16:02.898Z,2.03
2017-07-10T14:18:43.837Z,1.70
2017-07-10T14:21:25.009Z,1.90
2017-07-10T14:24:07.974Z,1.93
2017-07-10T14:26:49.623Z,2.00
2017-07-10T14:29:33.674Z,2.00
2017-07-10T14:32:15.104Z,2.10
2017-07-10T14:34:56.758Z,1.23
2017-07-10T14:37:36.292Z,2.07
2017-07-10T14:40:18.709Z,1.70
2017-07-10T14:43:02.726Z,1.33
2017-07-10T14:45:50.122Z,1.70
2017-07-10T14:48:35.451Z,1.33
2017-07-10T14:51:12.133Z,1.57
2017-07-10T14:53:52.659Z,1.60
2017-07-10T14:56:39.706Z,1.90
2017-07-10T14:59:26.234Z,1.93
2017-07-10T15:02:12.932Z,1.50
2017-07-10T15:04:58.640Z,1.40
2017-07-10T15:07:40.901Z,1.70
2017-07-10T15:10:25.766Z,1.50
2017-07-10T15:13:06.453Z,1.30
2017-07-10T15:15:55.455Z,2.60
2017-07-10T15:18:30.611Z,1.27
2017-07-10T15:21:18.775Z,1.90
2017-07-10T15:23:49.327Z,1.77
2017-07-10T15:26:37.157Z,1.57
2017-07-10T15:29:09.102Z,1.47
2017-07-10T15:31:56.578Z,1.67
2017-07-10T15:34:40.792Z,1.40
2017-07-10T15:37:22.783Z,2.10
2017-07-10T15:40:04.056Z,1.43
2017-07-10T15:42:49.722Z,1.40
2017-07-10T15:45:36.855Z,6.40
2017-07-10T15:48:22.353Z,6.10
2017-07-10T15:51:09.044Z,7.10
2017-07-10T15:53:52.727Z,8.93
2017-07-10T15:56:40.319Z,10.20
2017-07-10T15:59:22.129Z,12.30
2017-07-10T16:02:06.489Z,14.27
2017-07-10T16:04:47.751Z,10.30
2017-07-10T16:07:35.602Z,10.73
2017-07-10T16:10:23.691Z,11.03
2017-07-10T16:13:08.777Z,12.50
2017-07-10T16:15:55.235Z,12.43
2017-07-10T16:18:25.367Z,10.60
2017-07-10T16:20:55.358Z,9.60
2017-07-10T16:23:27.060Z,11.93
2017-07-10T16:25:56.744Z,10.40
2017-07-10T16:28:27.067Z,10.70
2017-07-10T16:30:56.637Z,9.20
2017-07-10T16:33:27.128Z,8.80
2017-07-10T16:35:57.032Z,8.23
2017-07-10T16:38:26.715Z,8.07
2017-07-10T16:41:11.652Z,6.87
2017-07-10T16:43:41.579Z,7.53
2017-07-10T16:46:12.569Z,7.77
2017-07-10T16:48:42.197Z,7.57
2017-07-10T16:51:27.248Z,6.70
2017-07-10T16:53:56.916Z,6.57
2017-07-10T16:56:42.429Z,6.07
2017-07-10T16:59:27.701Z,5.50
2017-07-10T17:02:14.199Z,5.10
2017-07-10T17:04:43.832Z,6.70
2017-07-10T17:07:30.379Z,5.47
2017-07-10T17:10:13.995Z,5.70
2017-07-10T17:12:49.158Z,5.17
2017-07-10T17:15:30.856Z,6.10
2017-07-10T17:18:03.152Z,5.17
2017-07-10T17:20:38.953Z,5.07
2017-07-10T17:23:25.945Z,5.57
2017-07-10T17:26:12.210Z,5.30
2017-07-10T17:29:02.465Z,4.80
2017-07-10T17:31:48.590Z,5.60
2017-07-10T17:34:28.322Z,4.50
2017-07-10T17:37:13.657Z,4.00
2017-07-10T17:39:55.969Z,4.13
2017-07-10T17:42:39.167Z,3.63
2017-07-10T17:45:26.279Z,4.20
2017-07-10T17:47:56.022Z,3.47
2017-07-10T17:50:43.719Z,3.97
2017-07-10T17:53:30.425Z,3.23
2017-07-10T17:56:18.368Z,3.27
2017-07-10T17:58:53.590Z,3.73
2017-07-10T18:01:38.847Z,3.20
2017-07-10T18:04:25.715Z,3.50
2017-07-10T18:07:12.585Z,3.57
2017-07-10T18:09:42.425Z,3.27
2017-07-10T18:12:27.985Z,3.00
2017-07-10T18:15:13.546Z,2.87
2017-07-10T18:17:57.110Z,2.50
2017-07-10T18:20:42.426Z,3.47
2017-07-10T18:23:28.956Z,2.93
2017-07-10T18:26:10.607Z,3.10
2017-07-10T18:28:56.126Z,2.70
2017-07-10T18:31:40.914Z,3.93
2017-07-10T18:34:23.731Z,2.70
2017-07-10T18:37:09.201Z,2.87
2017-07-10T18:39:58.214Z,2.20
2017-07-10T18:42:47.488Z,2.83
2017-07-10T18:45:35.534Z,2.57
2017-07-10T18:48:18.227Z,2.73
2017-07-10T18:51:04.706Z,3.00
2017-07-10T18:53:48.349Z,2.70
2017-07-10T18:56:34.773Z,4.33
2017-07-10T18:59:21.307Z,2.40
2017-07-10T19:02:07.056Z,2.67
2017-07-10T19:04:52.480Z,3.30
2017-07-10T19:07:39.139Z,2.57
2017-07-10T19:10:20.508Z,2.90
2017-07-10T19:13:07.955Z,2.53
2017-07-10T19:15:48.753Z,2.40
2017-07-10T19:18:30.231Z,3.10
2017-07-10T19:21:10.932Z,3.20
2017-07-10T19:23:50.215Z,2.10
2017-07-10T19:26:36.075Z,2.77
2017-07-10T19:29:24.375Z,2.30
2017-07-10T19:31:54.086Z,2.53
2017-07-10T19:34:36.865Z,2.80
2017-07-10T19:37:23.835Z,2.50
2017-07-10T19:40:10.720Z,2.17
2017-07-10T19:42:57.132Z,3.03
2017-07-10T19:45:27.350Z,2.60
2017-07-10T19:47:57.008Z,2.33
2017-07-10T19:50:26.827Z,2.90
2017-07-10T19:52:56.988Z,3.00
2017-07-10T19:55:26.707Z,2.00
2017-07-10T19:57:56.618Z,2.70
2017-07-10T20:00:26.517Z,2.70
2017-07-10T20:02:57.415Z,2.43
2017-07-10T20:05:27.497Z,2.33
2017-07-10T20:07:58.107Z,2.50
2017-07-10T20:10:28.736Z,2.23
2017-07-10T20:12:58.507Z,2.20
2017-07-10T20:15:28.168Z,2.23
2017-07-10T20:17:58.397Z,2.20
2017-07-10T20:20:29.096Z,2.23
2017-07-10T20:23:02.647Z,2.47
2017-07-10T20:25:48.628Z,2.43
2017-07-10T20:28:31.198Z,2.20
2017-07-10T20:31:15.185Z,2.43
2017-07-10T20:33:59.947Z,2.30
2017-07-10T20:36:29.603Z,3.13
2017-07-10T20:39:00.113Z,2.97
2017-07-10T20:41:30.053Z,2.80
2017-07-10T20:43:59.962Z,2.10
2017-07-10T20:46:29.606Z,2.83
